Weather at Unknown Farm Strip

Public forecast

Using degrees Celsius for public forecast. Weather courtesy of forecast.io.

Closest aviation weather report (METAR) to Unknown Farm Strip

Closest report is Perth Jandakot Airport, 60.5 nm (112.0 km) N. Retrieved 2020/11/28 10:30 UTC (0 seconds ago):

YPJT 281030Z AUTO 21013KT 9999 // NCD 19/10 Q1015 RF000/0000

Closest aviation forecast (TAF) to Unknown Farm Strip

Forecast is more than 6 hours old.

Closest forecast is Busselton Regional Airport, 39.0 nm (72.2 km) SSW. Retrieved 2020-11-28 00:00 UTC (10 hours ago):

TAF YBLN 272323Z 2800/2900 16008KT 9999 SCT050 FM280500 32010KT CAVOK FM280700 20010KT CAVOK FM281400 15004KT CAVOK